createdAt,value
2018-06-21T00:00:59.552Z,10.90
2018-06-21T00:03:28.609Z,5.30
2018-06-21T00:05:57.537Z,10.67
2018-06-21T00:08:26.443Z,8.70
2018-06-21T00:10:55.420Z,7.27
2018-06-21T00:13:24.065Z,6.03
2018-06-21T00:15:52.800Z,7.23
2018-06-21T00:18:21.750Z,7.90
2018-06-21T00:20:50.676Z,12.53
2018-06-21T00:23:19.645Z,5.30
2018-06-21T00:25:55.425Z,4.97
2018-06-21T00:28:24.357Z,10.30
2018-06-21T00:30:53.278Z,6.33
2018-06-21T00:33:22.305Z,8.20
2018-06-21T00:35:51.210Z,10.27
2018-06-21T00:38:20.130Z,8.30
2018-06-21T00:40:49.123Z,12.63
2018-06-21T00:43:18.126Z,9.23
2018-06-21T00:45:47.061Z,8.57
2018-06-21T00:48:16.010Z,7.13
2018-06-21T00:50:44.719Z,5.90
2018-06-21T00:53:13.413Z,7.70
2018-06-21T00:55:53.601Z,6.87
2018-06-21T00:58:22.547Z,7.03
2018-06-21T01:00:51.484Z,9.53
2018-06-21T01:03:20.386Z,9.90
2018-06-21T01:05:49.322Z,7.13
2018-06-21T01:08:18.293Z,7.37
2018-06-21T01:10:47.285Z,10.00
2018-06-21T01:13:16.220Z,8.83
2018-06-21T01:15:45.178Z,11.03
2018-06-21T01:18:14.099Z,8.23
2018-06-21T01:20:43.028Z,8.70
2018-06-21T01:23:11.938Z,8.97
2018-06-21T01:25:40.627Z,10.97
2018-06-21T01:28:09.337Z,9.07
2018-06-21T01:30:38.390Z,12.47
2018-06-21T01:33:07.361Z,8.90
2018-06-21T01:35:36.398Z,8.33
2018-06-21T01:38:05.482Z,7.07
2018-06-21T01:40:34.165Z,9.73
2018-06-21T01:43:03.270Z,11.63
2018-06-21T01:45:32.195Z,7.93
2018-06-21T01:48:01.110Z,6.63
2018-06-21T01:50:30.105Z,10.03
2018-06-21T01:52:59.129Z,12.13
2018-06-21T01:55:28.056Z,9.03
2018-06-21T01:57:57.438Z,12.13
2018-06-21T02:00:26.379Z,12.27
2018-06-21T02:02:55.299Z,7.57
2018-06-21T02:05:24.507Z,9.60
2018-06-21T02:07:53.453Z,14.10
2018-06-21T02:10:22.446Z,14.77
2018-06-21T02:12:51.385Z,12.13
2018-06-21T02:15:20.299Z,11.13
2018-06-21T02:17:49.385Z,12.73
2018-06-21T02:20:18.301Z,11.97
2018-06-21T02:22:47.253Z,10.10
2018-06-21T02:25:16.206Z,13.67
2018-06-21T02:27:45.353Z,15.50
2018-06-21T02:30:14.254Z,10.90
2018-06-21T02:32:43.186Z,9.63
2018-06-21T02:35:12.102Z,12.57
2018-06-21T02:37:41.045Z,11.80
2018-06-21T02:40:10.007Z,10.17
2018-06-21T02:42:39.110Z,11.73
2018-06-21T02:45:08.050Z,11.47
2018-06-21T02:47:37.159Z,14.67
2018-06-21T02:50:06.205Z,12.33
2018-06-21T02:52:35.143Z,13.30
2018-06-21T02:55:03.841Z,10.23
2018-06-21T02:57:33.419Z,10.67
2018-06-21T03:00:02.431Z,11.93
2018-06-21T03:02:32.259Z,12.83
2018-06-21T03:05:01.190Z,11.30
2018-06-21T03:07:31.241Z,10.90
2018-06-21T03:09:59.905Z,10.20
2018-06-21T03:12:28.715Z,10.13
2018-06-21T03:14:57.946Z,9.50
2018-06-21T03:17:26.861Z,10.47
2018-06-21T03:19:55.811Z,12.50
2018-06-21T03:22:24.990Z,8.73
2018-06-21T03:24:53.749Z,10.83
2018-06-21T03:27:22.436Z,12.03
2018-06-21T03:29:51.426Z,10.37
2018-06-21T03:32:20.357Z,9.30
2018-06-21T03:34:49.449Z,8.93
2018-06-21T03:37:18.346Z,10.43
2018-06-21T03:39:47.295Z,10.37
2018-06-21T03:42:16.530Z,8.13
2018-06-21T03:44:45.385Z,13.30
2018-06-21T03:47:14.331Z,14.47
2018-06-21T03:49:43.277Z,13.73
2018-06-21T03:52:12.010Z,11.07
2018-06-21T03:54:40.666Z,10.97
2018-06-21T03:57:09.739Z,9.63
2018-06-21T03:59:38.711Z,12.50
2018-06-21T04:02:07.687Z,10.73
2018-06-21T04:04:36.796Z,9.60
2018-06-21T04:07:05.711Z,9.13
2018-06-21T04:09:34.481Z,9.33
2018-06-21T04:12:03.202Z,14.37
2018-06-21T04:14:32.129Z,10.63
2018-06-21T04:17:01.207Z,11.90
2018-06-21T04:19:30.151Z,10.07
2018-06-21T04:21:59.072Z,11.93
2018-06-21T04:24:28.153Z,12.47
2018-06-21T04:26:57.078Z,10.27
2018-06-21T04:29:26.010Z,12.07
2018-06-21T04:31:55.407Z,8.83
2018-06-21T04:34:24.096Z,14.13
2018-06-21T04:36:52.771Z,13.93
2018-06-21T04:39:21.697Z,12.53
2018-06-21T04:41:50.646Z,12.47
2018-06-21T04:44:19.583Z,9.63
2018-06-21T04:46:48.523Z,16.43
2018-06-21T04:49:17.573Z,16.00
2018-06-21T04:51:46.594Z,18.83
2018-06-21T04:54:15.597Z,15.13
2018-06-21T04:56:44.514Z,14.97
2018-06-21T04:59:13.517Z,16.23
2018-06-21T05:01:42.177Z,14.37
2018-06-21T05:04:10.985Z,17.90
2018-06-21T05:06:40.001Z,18.87
2018-06-21T05:09:09.003Z,20.80
2018-06-21T05:11:37.921Z,25.70
2018-06-21T05:14:06.895Z,22.43
2018-06-21T05:16:35.816Z,28.70
2018-06-21T05:19:04.779Z,23.83
2018-06-21T05:21:33.842Z,24.70
2018-06-21T05:24:02.785Z,22.67
2018-06-21T05:26:31.725Z,22.60
2018-06-21T05:29:00.655Z,22.43
2018-06-21T05:31:29.616Z,21.83
2018-06-21T05:33:58.659Z,28.33
2018-06-21T05:36:27.619Z,24.93
2018-06-21T05:38:56.742Z,23.37
2018-06-21T05:41:25.694Z,21.97
2018-06-21T05:43:54.615Z,22.57
2018-06-21T05:46:23.536Z,29.33
2018-06-21T05:48:52.718Z,24.17
2018-06-21T05:51:21.713Z,23.23
2018-06-21T05:53:50.752Z,24.37
2018-06-21T05:56:19.683Z,16.30
2018-06-21T05:58:48.631Z,22.63
2018-06-21T06:01:17.552Z,20.27
2018-06-21T06:03:46.622Z,20.73
2018-06-21T06:06:15.646Z,21.90
2018-06-21T06:08:44.676Z,23.17
2018-06-21T06:11:13.395Z,18.57
2018-06-21T06:13:42.150Z,20.47
2018-06-21T06:16:11.130Z,18.00
2018-06-21T06:18:40.118Z,18.20
2018-06-21T06:21:09.023Z,17.80
2018-06-21T06:23:37.986Z,19.17
2018-06-21T06:26:07.085Z,16.33
2018-06-21T06:28:36.038Z,14.90
2018-06-21T06:31:04.961Z,15.60
2018-06-21T06:33:33.994Z,15.03
2018-06-21T06:36:02.983Z,14.07
2018-06-21T06:38:31.894Z,12.50
2018-06-21T06:41:00.847Z,19.47
2018-06-21T06:43:29.810Z,15.73
2018-06-21T06:45:58.931Z,13.70
2018-06-21T06:48:27.912Z,17.43
2018-06-21T06:50:56.822Z,15.33
2018-06-21T06:53:25.877Z,16.67
2018-06-21T06:55:54.855Z,17.07
2018-06-21T06:58:23.790Z,15.67
2018-06-21T07:00:52.748Z,16.57
2018-06-21T07:03:21.687Z,13.17
2018-06-21T07:05:50.832Z,13.00
2018-06-21T07:08:20.235Z,13.93
2018-06-21T07:10:49.133Z,16.87
2018-06-21T07:13:18.129Z,15.50
2018-06-21T07:15:47.367Z,12.03
2018-06-21T07:18:16.324Z,11.63
2018-06-21T07:20:45.229Z,11.70
2018-06-21T07:23:13.945Z,11.57
2018-06-21T07:25:42.870Z,12.87
2018-06-21T07:28:11.826Z,10.80
2018-06-21T07:30:40.981Z,10.90
2018-06-21T07:33:09.888Z,8.43
2018-06-21T07:35:38.828Z,10.17
2018-06-21T07:38:07.842Z,8.13
2018-06-21T07:40:36.807Z,10.00
2018-06-21T07:43:05.746Z,7.27
2018-06-21T07:45:34.635Z,5.17
2018-06-21T07:48:03.823Z,8.10
2018-06-21T07:50:32.815Z,6.20
2018-06-21T07:53:01.797Z,4.37
2018-06-21T07:55:30.843Z,5.93
2018-06-21T07:57:59.735Z,7.70
2018-06-21T08:00:28.825Z,5.20
2018-06-21T08:02:57.978Z,7.33
2018-06-21T08:05:27.174Z,5.90
2018-06-21T08:07:56.146Z,5.53
2018-06-21T08:10:25.252Z,7.43
2018-06-21T08:12:54.191Z,5.43
2018-06-21T08:15:23.159Z,6.37
2018-06-21T08:17:52.330Z,6.00
2018-06-21T08:20:21.375Z,4.73
2018-06-21T08:22:50.352Z,6.27
2018-06-21T08:25:19.270Z,6.33
2018-06-21T08:27:48.207Z,3.77
2018-06-21T08:30:17.306Z,5.67
2018-06-21T08:32:46.282Z,6.10
2018-06-21T08:35:15.268Z,6.43
2018-06-21T08:37:44.202Z,8.37
2018-06-21T08:40:13.228Z,9.40
2018-06-21T08:42:42.137Z,7.70
2018-06-21T08:45:11.075Z,5.47
2018-06-21T08:47:40.061Z,6.27
2018-06-21T08:50:09.087Z,7.07
2018-06-21T08:52:38.081Z,5.57
2018-06-21T08:55:07.546Z,6.97
2018-06-21T08:57:38.542Z,7.97
2018-06-21T09:00:07.645Z,8.47
2018-06-21T09:02:36.597Z,12.83
2018-06-21T09:05:05.713Z,6.10
2018-06-21T09:07:34.694Z,6.17
2018-06-21T09:10:03.673Z,9.27
2018-06-21T09:12:32.713Z,5.40
2018-06-21T09:15:01.638Z,5.00
2018-06-21T09:17:30.570Z,5.03
2018-06-21T09:19:59.494Z,5.30
2018-06-21T09:22:28.425Z,11.03
2018-06-21T09:24:57.364Z,10.87
2018-06-21T09:27:26.331Z,8.43
2018-06-21T09:29:55.425Z,5.63
2018-06-21T09:32:24.345Z,6.13
2018-06-21T09:34:53.361Z,6.37
2018-06-21T09:37:22.564Z,5.60
2018-06-21T09:39:51.493Z,7.33
2018-06-21T09:42:20.637Z,10.47
2018-06-21T09:44:49.761Z,4.43
2018-06-21T09:47:18.828Z,5.73
2018-06-21T09:49:47.862Z,6.50
2018-06-21T09:52:16.817Z,5.40
2018-06-21T09:54:46.005Z,5.87
2018-06-21T09:57:15.093Z,6.00
2018-06-21T09:59:43.793Z,5.00
2018-06-21T10:02:12.686Z,7.50
2018-06-21T10:04:41.823Z,6.77
2018-06-21T10:07:10.989Z,6.27
2018-06-21T10:09:39.960Z,5.33
2018-06-21T10:12:08.961Z,9.10
2018-06-21T10:14:37.693Z,8.67
2018-06-21T10:17:06.601Z,11.90
2018-06-21T10:19:36.014Z,8.83
2018-06-21T10:22:07.075Z,3.20
2018-06-21T10:24:36.004Z,3.97
2018-06-21T10:27:04.938Z,6.13
2018-06-21T10:29:33.845Z,11.00
2018-06-21T10:32:02.860Z,6.67
2018-06-21T10:34:31.794Z,5.40
2018-06-21T10:37:00.770Z,5.13
2018-06-21T10:39:29.756Z,7.50
2018-06-21T10:41:58.728Z,9.00
2018-06-21T10:44:27.661Z,8.23
2018-06-21T10:46:56.558Z,10.20
2018-06-21T10:49:25.541Z,7.23
2018-06-21T10:51:54.445Z,8.37
2018-06-21T10:54:23.402Z,5.77
2018-06-21T10:56:52.402Z,9.30
2018-06-21T10:59:21.403Z,7.20
2018-06-21T11:01:50.373Z,7.47
2018-06-21T11:04:19.385Z,7.13
2018-06-21T11:06:48.316Z,8.33
2018-06-21T11:09:17.410Z,6.37
2018-06-21T11:11:46.323Z,3.87
2018-06-21T11:14:16.150Z,7.20
2018-06-21T11:16:45.272Z,12.03
2018-06-21T11:19:14.271Z,6.00
2018-06-21T11:21:43.263Z,5.80
2018-06-21T11:24:12.198Z,5.93
2018-06-21T11:26:41.462Z,3.27
2018-06-21T11:29:10.158Z,7.70
2018-06-21T11:31:39.070Z,8.13
2018-06-21T11:34:07.960Z,8.77
2018-06-21T11:36:36.903Z,3.97
2018-06-21T11:39:06.959Z,6.07
2018-06-21T11:41:36.060Z,6.10
2018-06-21T11:44:05.123Z,5.40
2018-06-21T11:46:34.253Z,6.13
2018-06-21T11:49:03.167Z,8.67
2018-06-21T11:51:32.062Z,6.73
2018-06-21T11:54:01.054Z,7.73
2018-06-21T11:56:30.065Z,6.93
2018-06-21T11:58:58.994Z,10.13
2018-06-21T12:01:28.026Z,8.63
2018-06-21T12:03:56.978Z,12.50
2018-06-21T12:06:25.913Z,5.03
2018-06-21T12:08:54.899Z,2.83
2018-06-21T12:11:23.845Z,5.10
2018-06-21T12:13:52.790Z,5.40
2018-06-21T12:16:21.702Z,6.00
2018-06-21T12:18:51.042Z,5.67
2018-06-21T12:21:19.954Z,5.27
2018-06-21T12:23:48.911Z,4.43
2018-06-21T12:26:18.763Z,5.47
2018-06-21T12:28:47.803Z,6.43
2018-06-21T12:31:16.813Z,5.03
2018-06-21T12:33:45.718Z,6.63
2018-06-21T12:36:14.671Z,7.37
2018-06-21T12:38:43.601Z,5.50
2018-06-21T12:41:12.612Z,4.00
2018-06-21T12:43:41.617Z,3.93
2018-06-21T12:46:12.717Z,5.37
2018-06-21T12:48:41.631Z,9.23
2018-06-21T12:51:10.773Z,10.33
2018-06-21T12:53:39.762Z,4.87
2018-06-21T12:56:08.724Z,7.97
2018-06-21T12:58:38.346Z,7.60
2018-06-21T13:01:07.567Z,6.03
2018-06-21T13:03:36.214Z,5.77
2018-06-21T13:06:05.122Z,8.90
2018-06-21T13:08:45.180Z,4.93
2018-06-21T13:11:34.904Z,5.00
2018-06-21T13:14:15.113Z,7.90
2018-06-21T13:16:44.384Z,10.13
2018-06-21T13:19:13.540Z,11.27
2018-06-21T13:21:42.722Z,7.43
2018-06-21T13:24:11.890Z,6.47
2018-06-21T13:26:40.884Z,6.03
2018-06-21T13:29:09.865Z,7.53
2018-06-21T13:31:38.878Z,5.53
2018-06-21T13:34:07.886Z,4.40
2018-06-21T13:36:36.999Z,6.40
2018-06-21T13:39:06.923Z,5.63
2018-06-21T13:41:36.148Z,23.40
2018-06-21T13:44:05.410Z,6.47
2018-06-21T13:46:34.790Z,4.67
2018-06-21T13:49:03.931Z,3.63
2018-06-21T13:51:32.957Z,7.40
2018-06-21T13:54:01.921Z,4.57
2018-06-21T13:56:34.412Z,3.50
2018-06-21T13:59:03.659Z,6.63
2018-06-21T14:01:32.765Z,4.03
2018-06-21T14:04:01.670Z,5.73
2018-06-21T14:06:30.996Z,10.87
2018-06-21T14:08:59.640Z,5.53
2018-06-21T14:11:28.314Z,7.77
2018-06-21T14:13:58.643Z,5.17
2018-06-21T14:16:27.555Z,3.27
2018-06-21T14:18:56.662Z,6.33
2018-06-21T14:21:25.786Z,3.53
2018-06-21T14:23:54.864Z,5.80
2018-06-21T14:26:23.779Z,8.13
2018-06-21T14:28:52.727Z,5.20
2018-06-21T14:31:22.916Z,5.30
2018-06-21T14:33:52.850Z,7.13
2018-06-21T14:36:21.866Z,3.53
2018-06-21T14:38:50.553Z,8.00
2018-06-21T14:41:19.269Z,6.97
2018-06-21T14:43:48.327Z,6.47
2018-06-21T14:46:17.604Z,6.67
2018-06-21T14:48:46.585Z,4.93
2018-06-21T14:51:15.652Z,4.43
2018-06-21T14:53:45.479Z,2.93
2018-06-21T14:56:15.228Z,5.33
2018-06-21T14:58:44.316Z,5.67
2018-06-21T15:01:13.824Z,5.83
2018-06-21T15:03:42.779Z,4.97
2018-06-21T15:06:11.839Z,10.73
2018-06-21T15:08:41.180Z,7.33
2018-06-21T15:11:10.286Z,9.47
2018-06-21T15:13:40.274Z,5.93
2018-06-21T15:16:09.325Z,4.07
2018-06-21T15:18:38.290Z,5.47
2018-06-21T15:21:07.237Z,3.93
2018-06-21T15:23:36.380Z,8.80
2018-06-21T15:26:05.476Z,8.03
2018-06-21T15:28:34.506Z,6.93
2018-06-21T15:31:03.475Z,7.73
2018-06-21T15:33:32.402Z,9.23
2018-06-21T15:36:01.426Z,7.57
2018-06-21T15:38:30.395Z,6.67
2018-06-21T15:40:59.552Z,5.87
2018-06-21T15:43:28.406Z,5.60
2018-06-21T15:45:57.481Z,9.27
2018-06-21T15:48:26.546Z,4.77
2018-06-21T15:50:55.620Z,6.00
2018-06-21T15:53:24.558Z,3.90
2018-06-21T15:55:54.050Z,6.00
2018-06-21T15:58:24.223Z,4.37
2018-06-21T16:00:53.266Z,7.27
2018-06-21T16:03:22.711Z,4.20
2018-06-21T16:05:51.882Z,6.37
2018-06-21T16:08:21.045Z,4.70
2018-06-21T16:10:50.034Z,5.10
2018-06-21T16:13:18.958Z,4.23
2018-06-21T16:15:48.040Z,4.63
2018-06-21T16:18:16.924Z,8.73
2018-06-21T16:20:45.911Z,7.13
2018-06-21T16:23:18.245Z,5.27
2018-06-21T16:25:50.818Z,6.63
2018-06-21T16:28:21.349Z,7.13
2018-06-21T16:30:50.441Z,5.70
2018-06-21T16:33:19.429Z,4.63
2018-06-21T16:35:48.548Z,6.20
2018-06-21T16:38:17.600Z,6.00
2018-06-21T16:40:46.605Z,4.70
2018-06-21T16:43:16.398Z,6.07
2018-06-21T16:45:45.354Z,4.83
2018-06-21T16:48:14.470Z,7.13
2018-06-21T16:50:43.508Z,5.13
2018-06-21T16:53:12.595Z,5.63
2018-06-21T16:55:41.460Z,6.47
2018-06-21T16:58:10.505Z,5.77
2018-06-21T17:00:39.438Z,8.07
2018-06-21T17:03:08.366Z,7.00
2018-06-21T17:05:37.254Z,8.87
2018-06-21T17:08:06.032Z,6.67
2018-06-21T17:10:34.931Z,7.97
2018-06-21T17:13:03.941Z,14.57
2018-06-21T17:15:35.545Z,6.13
2018-06-21T17:18:04.571Z,9.07
2018-06-21T17:20:33.578Z,6.80
2018-06-21T17:23:02.364Z,4.67
2018-06-21T17:25:31.508Z,5.20
2018-06-21T17:28:00.540Z,6.53
2018-06-21T17:30:30.097Z,9.70
2018-06-21T17:32:59.091Z,13.77
2018-06-21T17:35:28.235Z,6.00
2018-06-21T17:37:57.402Z,6.50
2018-06-21T17:40:31.844Z,8.47
2018-06-21T17:43:01.947Z,6.27
2018-06-21T17:45:35.868Z,9.77
2018-06-21T17:48:07.395Z,11.53
2018-06-21T17:50:36.621Z,4.70
2018-06-21T17:53:05.387Z,4.50
2018-06-21T17:55:34.184Z,6.33
2018-06-21T17:58:03.302Z,5.03
2018-06-21T18:00:32.409Z,6.57
2018-06-21T18:03:01.474Z,8.20
2018-06-21T18:05:30.626Z,6.10
2018-06-21T18:07:59.662Z,5.93
2018-06-21T18:10:28.603Z,4.07
2018-06-21T18:12:57.645Z,6.30
2018-06-21T18:15:26.603Z,3.50
2018-06-21T18:17:55.798Z,4.53
2018-06-21T18:20:24.846Z,8.70
2018-06-21T18:22:53.853Z,7.63
2018-06-21T18:25:22.825Z,8.10
2018-06-21T18:27:52.995Z,8.43
2018-06-21T18:30:22.044Z,2.60
2018-06-21T18:32:51.397Z,11.70
2018-06-21T18:35:20.432Z,6.27
2018-06-21T18:37:49.391Z,10.93
2018-06-21T18:40:18.510Z,8.73
2018-06-21T18:42:47.197Z,5.30
2018-06-21T18:45:16.174Z,6.10
2018-06-21T18:47:44.869Z,7.23
2018-06-21T18:50:13.765Z,6.57
2018-06-21T18:52:43.816Z,7.67
2018-06-21T18:55:12.705Z,8.13
2018-06-21T18:58:48.864Z,7.53
2018-06-21T19:04:18.196Z,10.17
2018-06-21T19:06:46.865Z,9.03
2018-06-21T19:09:15.725Z,9.30
2018-06-21T19:11:45.515Z,6.50
2018-06-21T19:14:14.618Z,11.40
2018-06-21T19:16:43.599Z,9.73
2018-06-21T19:19:12.529Z,11.93
2018-06-21T19:21:41.671Z,12.63
2018-06-21T19:24:10.679Z,9.80
2018-06-21T19:26:39.679Z,14.43
2018-06-21T19:29:08.661Z,10.70
2018-06-21T19:31:37.790Z,8.63
2018-06-21T19:34:06.928Z,6.30
2018-06-21T19:36:36.127Z,5.83
2018-06-21T19:39:07.715Z,6.40
2018-06-21T19:41:36.996Z,7.23
2018-06-21T19:44:05.962Z,12.53
2018-06-21T19:46:34.891Z,6.20
2018-06-21T19:49:03.738Z,9.03
2018-06-21T19:51:32.525Z,12.30
2018-06-21T19:54:01.633Z,9.60
2018-06-21T19:56:30.525Z,7.87
2018-06-21T19:58:59.510Z,7.37
2018-06-21T20:01:28.424Z,9.87
2018-06-21T20:03:57.104Z,7.90
2018-06-21T20:06:26.066Z,10.33
2018-06-21T20:08:55.043Z,4.57
2018-06-21T20:11:23.981Z,8.97
2018-06-21T20:13:53.010Z,13.10
2018-06-21T20:16:21.990Z,10.63
2018-06-21T20:18:50.857Z,6.27
2018-06-21T20:21:19.765Z,5.97
2018-06-21T20:23:48.848Z,9.07
2018-06-21T20:26:17.824Z,10.47
2018-06-21T20:28:46.750Z,11.07
2018-06-21T20:31:15.741Z,7.03
2018-06-21T20:33:44.741Z,5.80
2018-06-21T20:36:13.657Z,8.67
2018-06-21T20:38:42.553Z,7.13
2018-06-21T20:41:11.574Z,15.47
2018-06-21T20:43:40.766Z,4.40
2018-06-21T20:46:09.865Z,5.97
2018-06-21T20:48:38.775Z,12.37
2018-06-21T20:51:07.747Z,9.17
2018-06-21T20:53:36.837Z,7.67
2018-06-21T20:56:05.838Z,12.53
2018-06-21T20:58:34.852Z,5.00
2018-06-21T21:01:03.939Z,7.67
2018-06-21T21:03:32.632Z,4.60
2018-06-21T21:06:01.326Z,6.70
2018-06-21T21:08:30.414Z,11.10
2018-06-21T21:10:59.433Z,7.73
2018-06-21T21:13:28.642Z,8.33
2018-06-21T21:15:57.649Z,6.03
2018-06-21T21:18:26.702Z,7.80
2018-06-21T21:20:55.679Z,6.30
2018-06-21T21:23:24.653Z,8.47
2018-06-21T21:25:53.757Z,10.10
2018-06-21T21:28:22.868Z,7.87
2018-06-21T21:30:51.757Z,7.53
2018-06-21T21:33:20.718Z,13.23
2018-06-21T21:35:49.419Z,8.10
2018-06-21T21:38:17.922Z,11.43
2018-06-21T21:40:50.491Z,13.37
2018-06-21T21:43:19.960Z,7.13
2018-06-21T21:45:48.841Z,7.77
2018-06-21T21:48:17.755Z,8.47
2018-06-21T21:50:46.655Z,13.23
2018-06-21T21:53:15.578Z,6.93
2018-06-21T21:55:44.466Z,9.20
2018-06-21T21:58:13.533Z,11.03
2018-06-21T22:00:43.056Z,6.07
2018-06-21T22:03:12.350Z,10.63
2018-06-21T22:05:41.331Z,9.37
2018-06-21T22:08:10.756Z,7.17
2018-06-21T22:10:41.625Z,8.30
2018-06-21T22:13:10.557Z,8.63
2018-06-21T22:15:39.700Z,6.40
2018-06-21T22:18:08.785Z,8.63
2018-06-21T22:20:37.901Z,7.00
2018-06-21T22:23:07.110Z,6.40
2018-06-21T22:25:36.111Z,6.60
2018-06-21T22:28:05.069Z,8.57
2018-06-21T22:30:34.265Z,9.03
2018-06-21T22:33:03.374Z,9.50
2018-06-21T22:35:32.245Z,5.37
2018-06-21T22:38:01.177Z,10.70
2018-06-21T22:40:29.817Z,6.17
2018-06-21T22:42:58.720Z,6.97
2018-06-21T22:45:27.591Z,7.80
2018-06-21T22:47:56.625Z,8.70
2018-06-21T22:50:26.431Z,12.37
2018-06-21T22:52:55.113Z,8.23
2018-06-21T22:55:23.814Z,9.47
2018-06-21T22:57:52.734Z,8.47
2018-06-21T23:00:21.674Z,5.37
2018-06-21T23:02:50.592Z,8.20
2018-06-21T23:05:19.219Z,9.47
2018-06-21T23:07:48.089Z,9.13
2018-06-21T23:10:17.001Z,8.63
2018-06-21T23:12:46.002Z,10.47
2018-06-21T23:15:14.936Z,7.47
2018-06-21T23:17:43.889Z,9.27
2018-06-21T23:20:12.790Z,8.53
2018-06-21T23:22:41.686Z,7.93
2018-06-21T23:25:10.787Z,9.73
2018-06-21T23:27:39.423Z,7.47
2018-06-21T23:30:08.430Z,11.43
2018-06-21T23:32:37.514Z,7.37
2018-06-21T23:35:06.414Z,6.00
2018-06-21T23:37:35.310Z,15.10
2018-06-21T23:40:04.366Z,6.00
2018-06-21T23:42:33.294Z,7.00
2018-06-21T23:45:02.433Z,7.50
2018-06-21T23:47:31.393Z,7.90
2018-06-21T23:50:00.445Z,5.37
2018-06-21T23:52:29.674Z,8.77
2018-06-21T23:54:58.595Z,10.87
2018-06-21T23:57:27.607Z,8.20
2018-06-21T23:59:56.694Z,7.37
